Time;durP1;ratioP1;P1;durP2;ratioP2;P2;SDS_P1;SDS_P2;PMS_P1;PMS_P2;Temp;Humidity;BMP_temperature;BMP_pressure;BME280_temperature;BME280_humidity;BME280_pressure;Samples;Min_cycle;Max_cycle;Signal;HPM_P1;HPM_P2
2021/11/10 00:05:27;;;;;;;31.52;15.68;;;;;;;1.69;100.00;100673.45;4466196;80;28503;-77
2021/11/10 00:11:28;;;;;;;42.95;17.62;;;;;;;1.74;100.00;100670.76;4465746;80;28455;-79
2021/11/10 00:17:30;;;;;;;38.85;17.85;;;;;;;1.72;100.00;100682.46;4466042;80;28521;-76
2021/11/10 00:23:31;;;;;;;36.10;17.57;;;;;;;1.62;100.00;100673.15;4466346;80;28474;-78
2021/11/10 00:29:32;;;;;;;31.70;16.45;;;;;;;1.70;100.00;100684.41;4465340;79;28503;-76
2021/11/10 00:35:34;;;;;;;32.80;16.50;;;;;;;1.94;100.00;100702.67;4466251;79;28480;-76
2021/11/10 00:41:35;;;;;;;31.05;16.55;;;;;;;2.00;100.00;100697.31;4466232;80;28536;-76
2021/11/10 00:47:37;;;;;;;34.53;16.90;;;;;;;2.06;100.00;100700.27;4459183;80;28503;-77
2021/11/10 00:53:38;;;;;;;36.05;17.30;;;;;;;2.08;100.00;100702.32;4431254;80;28501;-77
2021/11/10 00:59:39;;;;;;;35.95;17.57;;;;;;;2.08;100.00;100693.04;4434582;80;28508;-75
2021/11/10 01:05:41;;;;;;;30.48;16.32;;;;;;;2.14;100.00;100685.50;4430719;80;28473;-77
2021/11/10 01:11:44;;;;;;;35.35;16.27;;;;;;;2.14;100.00;100677.53;4427924;80;28453;-77
2021/11/10 01:17:46;;;;;;;28.07;15.28;;;;;;;2.14;100.00;100677.53;4427985;80;28462;-77
2021/11/10 01:23:47;;;;;;;33.65;14.98;;;;;;;2.18;100.00;100657.23;4433797;80;28458;-78
2021/11/10 01:29:50;;;;;;;34.30;15.83;;;;;;;2.12;100.00;100655.61;4398897;80;28505;-77
2021/11/10 01:35:51;;;;;;;30.55;15.53;;;;;;;2.19;100.00;100654.09;4477246;78;28497;-77
2021/11/10 01:42:02;;;;;;;26.62;14.10;;;;;;;2.11;100.00;100636.18;4419223;80;28521;-77
2021/11/10 01:47:59;;;;;;;27.02;13.58;;;;;;;1.91;100.00;100641.43;4436434;80;28579;-77
2021/11/10 01:54:01;;;;;;;24.95;13.38;;;;;;;1.93;100.00;100643.48;4449408;80;28470;-77
2021/11/10 02:00:17;;;;;;;30.10;14.85;;;;;;;1.78;100.00;100661.58;4450695;80;28489;-76
2021/11/10 02:06:21;;;;;;;25.68;14.65;;;;;;;1.81;100.00;100661.78;4450608;80;28497;-76
2021/11/10 02:12:26;;;;;;;26.87;13.98;;;;;;;1.70;100.00;100647.29;4448951;80;28509;-76
2021/11/10 02:18:29;;;;;;;29.87;14.90;;;;;;;1.77;100.00;100631.20;4445222;79;28470;-76
2021/11/10 02:24:32;;;;;;;24.92;13.40;;;;;;;1.79;100.00;100643.36;4435987;80;28481;-75
2021/11/10 02:30:34;;;;;;;26.40;13.80;;;;;;;1.73;100.00;100633.78;4435467;80;28486;-76
2021/11/10 02:36:36;;;;;;;25.72;13.40;;;;;;;1.75;100.00;100629.18;4435059;80;28524;-76
2021/11/10 02:42:39;;;;;;;28.90;14.65;;;;;;;1.72;100.00;100632.93;4436257;80;28453;-76
2021/11/10 02:48:40;;;;;;;27.05;14.45;;;;;;;1.78;100.00;100631.55;4408285;80;28471;-77
2021/11/10 02:54:49;;;;;;;22.80;12.28;;;;;;;1.80;100.00;100622.50;4428613;80;28462;-76
2021/11/10 03:00:50;;;;;;;22.98;12.98;;;;;;;1.73;100.00;100620.02;4426725;80;28531;-76
2021/11/10 03:06:54;;;;;;;22.02;12.78;;;;;;;1.67;100.00;100624.55;4428344;80;28537;-76
2021/11/10 03:12:56;;;;;;;24.25;11.65;;;;;;;1.65;100.00;100615.39;4428781;80;28877;-77
2021/11/10 03:18:59;;;;;;;23.10;11.88;;;;;;;1.59;100.00;100619.07;4443774;80;28469;-76
2021/11/10 03:25:02;;;;;;;23.38;12.65;;;;;;;1.57;100.00;100600.64;4390710;80;28475;-76
2021/11/10 03:31:04;;;;;;;23.80;12.65;;;;;;;1.61;100.00;100609.16;4418786;80;28478;-77
2021/11/10 03:37:05;;;;;;;24.80;13.45;;;;;;;1.65;100.00;100605.27;4374422;81;28461;-78
2021/11/10 03:43:08;;;;;;;29.05;13.13;;;;;;;1.64;100.00;100603.59;4442653;80;28490;-78
2021/11/10 03:49:10;;;;;;;23.35;12.80;;;;;;;1.52;100.00;100614.80;4449022;80;28499;-76
2021/11/10 03:55:12;;;;;;;24.63;13.22;;;;;;;1.57;100.00;100599.31;4465446;80;28533;-76
2021/11/10 04:01:15;;;;;;;24.98;12.18;;;;;;;1.60;100.00;100587.61;4464981;80;28478;-77
2021/11/10 04:07:18;;;;;;;24.23;13.22;;;;;;;1.53;100.00;100585.98;4463813;79;28546;-80
2021/11/10 04:13:19;;;;;;;28.57;13.65;;;;;;;1.43;100.00;100579.30;4464992;80;28487;-76
2021/11/10 04:19:22;;;;;;;21.33;12.07;;;;;;;1.38;100.00;100574.91;4464106;79;28589;-76
2021/11/10 04:25:25;;;;;;;24.27;12.93;;;;;;;1.25;100.00;100569.34;4471853;80;28530;-76
2021/11/10 04:31:27;;;;;;;25.10;13.03;;;;;;;1.22;100.00;100552.36;4473596;80;28461;-75
2021/11/10 04:37:29;;;;;;;24.25;11.97;;;;;;;1.13;100.00;100552.33;4473619;80;28523;-78
2021/11/10 04:43:31;;;;;;;26.05;12.65;;;;;;;1.24;100.00;100541.64;4447647;80;28465;-77
2021/11/10 04:49:33;;;;;;;23.47;12.85;;;;;;;1.27;100.00;100527.30;4447106;80;28478;-76
2021/11/10 04:55:34;;;;;;;22.70;11.88;;;;;;;1.28;100.00;100536.92;4383965;81;28481;-77
2021/11/10 05:02:02;;;;;;;21.62;12.13;;;;;;;1.26;100.00;100541.02;4382555;81;28457;-76
2021/11/10 05:07:50;;;;;;;24.40;12.73;;;;;;;1.16;100.00;100544.97;4377698;81;28496;-76
2021/11/10 05:13:52;;;;;;;21.23;12.70;;;;;;;1.23;100.00;100537.32;4382452;81;28470;-76
2021/11/10 05:19:54;;;;;;;23.75;13.08;;;;;;;1.18;100.00;100544.81;4384161;81;28504;-76
2021/11/10 05:25:56;;;;;;;27.15;12.70;;;;;;;1.25;100.00;100544.17;4383920;81;28518;-75
2021/11/10 05:31:57;;;;;;;22.80;12.03;;;;;;;1.22;100.00;100550.22;4383943;81;28460;-75
2021/11/10 05:37:58;;;;;;;25.32;13.05;;;;;;;1.04;100.00;100548.17;4384375;81;28450;-75
2021/11/10 05:44:00;;;;;;;30.92;15.00;;;;;;;1.32;100.00;100537.84;4380571;81;28481;-74
2021/11/10 05:50:04;;;;;;;29.82;14.43;;;;;;;1.28;100.00;100548.34;4402670;80;28502;-75
2021/11/10 05:56:06;;;;;;;29.23;14.47;;;;;;;1.34;100.00;100535.05;4451845;80;37402;-77
2021/11/10 06:02:07;;;;;;;29.72;14.80;;;;;;;1.32;100.00;100536.52;4429247;80;28499;-77
2021/11/10 06:08:10;;;;;;;34.03;16.45;;;;;;;1.50;100.00;100545.99;4393110;81;28484;-77
2021/11/10 06:14:12;;;;;;;32.00;15.55;;;;;;;1.51;100.00;100542.37;4393177;81;28546;-74
2021/11/10 06:20:14;;;;;;;30.60;14.38;;;;;;;1.69;100.00;100544.85;4452100;78;28482;-78
2021/11/10 06:26:15;;;;;;;28.80;13.75;;;;;;;1.71;100.00;100557.00;4508822;78;28559;-77
2021/11/10 06:32:17;;;;;;;30.70;15.70;;;;;;;1.77;100.00;100555.63;4450597;80;28496;-74
2021/11/10 06:38:18;;;;;;;35.05;16.10;;;;;;;1.89;100.00;100554.53;4447344;80;28434;-75
2021/11/10 06:44:19;;;;;;;36.90;15.30;;;;;;;1.90;100.00;100558.03;4436632;80;28512;-75
2021/11/10 06:50:21;;;;;;;34.60;16.02;;;;;;;1.86;100.00;100561.44;4454134;80;28464;-75
2021/11/10 06:56:22;;;;;;;29.45;14.38;;;;;;;1.98;100.00;100570.60;4496192;78;28453;-74
2021/11/10 07:02:24;;;;;;;28.95;14.78;;;;;;;2.03;100.00;100568.36;4535123;78;28449;-75
2021/11/10 07:08:25;;;;;;;33.58;15.38;;;;;;;2.16;100.00;100570.76;4466846;80;28485;-74
2021/11/10 07:14:27;;;;;;;33.65;15.08;;;;;;;2.29;100.00;100567.84;4415600;80;28437;-75
2021/11/10 07:20:29;;;;;;;30.02;15.18;;;;;;;2.39;100.00;100558.06;4456796;80;28480;-74
2021/11/10 07:26:31;;;;;;;32.15;14.63;;;;;;;2.38;100.00;100537.81;4464944;80;28465;-74
2021/11/10 07:32:35;;;;;;;44.90;20.77;;;;;;;2.36;100.00;100550.39;4464872;79;28449;-77
2021/11/10 07:38:40;;;;;;;32.53;14.58;;;;;;;2.34;100.00;100548.34;4449298;80;28444;-77
2021/11/10 07:44:42;;;;;;;32.53;14.78;;;;;;;2.43;100.00;100544.84;4387620;81;28536;-78
2021/11/10 07:50:43;;;;;;;35.70;15.85;;;;;;;2.46;100.00;100535.30;4382327;81;28472;-78
2021/11/10 07:56:45;;;;;;;40.08;16.45;;;;;;;2.66;100.00;100528.64;4373227;81;28495;-77
2021/11/10 08:02:47;;;;;;;35.65;15.90;;;;;;;2.84;100.00;100537.17;4373440;81;28498;-80
2021/11/10 08:08:48;;;;;;;35.63;17.57;;;;;;;3.09;100.00;100531.72;4472972;78;28516;-80
2021/11/10 08:14:50;;;;;;;37.25;18.07;;;;;;;2.93;100.00;100533.19;4539467;78;28507;-76
2021/11/10 08:20:51;;;;;;;33.18;15.38;;;;;;;3.08;100.00;100525.24;4539325;78;28506;-80
2021/11/10 08:26:53;;;;;;;33.25;15.48;;;;;;;3.27;100.00;100530.45;4538690;78;28541;-80
2021/11/10 08:32:55;;;;;;;32.78;15.80;;;;;;;3.43;100.00;100521.02;4539204;78;28504;-73
2021/11/10 08:38:57;;;;;;;35.30;17.42;;;;;;;3.44;100.00;100506.73;4515331;78;28442;-77
2021/11/10 08:45:09;;;;;;;39.85;18.25;;;;;;;3.52;100.00;100508.17;4398003;80;28488;-77
2021/11/10 08:51:10;;;;;;;39.58;17.48;;;;;;;3.56;100.00;100508.20;4400545;78;28481;-84
2021/11/10 08:57:11;;;;;;;44.23;18.40;;;;;;;3.60;100.00;100492.80;4450956;79;28535;-81
2021/11/10 09:03:15;;;;;;;48.60;18.95;;;;;;;3.92;100.00;100485.31;4504064;78;28496;-75
2021/11/10 09:09:17;;;;;;;39.78;18.80;;;;;;;4.06;100.00;100483.44;4459465;78;28498;-80
2021/11/10 09:15:21;;;;;;;46.73;20.30;;;;;;;4.27;100.00;100486.27;4426681;80;28457;-74
2021/11/10 09:21:22;;;;;;;41.10;17.50;;;;;;;4.18;100.00;100479.55;4343329;81;28547;-79
2021/11/10 09:27:30;;;;;;;36.33;15.95;;;;;;;3.89;100.00;100485.94;4381615;81;28471;-80
2021/11/10 09:33:37;;;;;;;34.53;17.12;;;;;;;4.31;100.00;100480.97;4341699;81;28471;-75
2021/11/10 09:39:38;;;;;;;37.98;17.27;;;;;;;4.09;100.00;100468.99;4365894;81;28458;-74
2021/11/10 09:45:39;;;;;;;40.73;18.70;;;;;;;4.19;100.00;100471.08;4418743;79;28464;-75
2021/11/10 09:51:44;;;;;;;37.42;19.05;;;;;;;3.96;100.00;100466.71;4436037;79;28459;-76
2021/11/10 09:57:51;;;;;;;37.27;17.77;;;;;;;3.98;100.00;100458.07;4355733;81;28515;-80
2021/11/10 10:03:56;;;;;;;36.95;18.25;;;;;;;4.19;100.00;100454.59;4465609;78;28457;-80
2021/11/10 10:09:57;;;;;;;43.55;19.05;;;;;;;4.17;100.00;100443.27;4371199;81;28498;-79
2021/11/10 10:15:58;;;;;;;44.93;20.82;;;;;;;4.47;100.00;100433.64;4369683;81;28539;-79
2021/11/10 10:22:00;;;;;;;43.58;21.75;;;;;;;4.34;100.00;100426.09;4304452;81;28512;-78
2021/11/10 10:28:02;;;;;;;45.30;20.50;;;;;;;4.50;100.00;100414.70;4295334;82;28496;-79
2021/11/10 10:34:14;;;;;;;44.93;19.98;;;;;;;4.54;100.00;100420.05;4368633;81;28556;-78
2021/11/10 10:40:16;;;;;;;41.20;18.00;;;;;;;4.56;100.00;100407.41;4292725;82;28502;-79
2021/11/10 10:46:17;;;;;;;35.58;17.27;;;;;;;4.51;100.00;100392.41;4322584;82;28492;-78
2021/11/10 10:52:20;;;;;;;43.45;19.75;;;;;;;4.66;100.00;100376.67;4372076;80;28507;-81
2021/11/10 10:58:38;;;;;;;44.30;20.48;;;;;;;4.85;100.00;100374.23;4386375;80;28505;-79
2021/11/10 11:04:45;;;;;;;37.63;19.07;;;;;;;4.92;100.00;100358.44;4514022;79;28481;-80
2021/11/10 11:10:47;;;;;;;31.97;16.40;;;;;;;5.21;100.00;100349.19;4437469;79;28461;-82
2021/11/10 11:17:03;;;;;;;31.12;17.10;;;;;;;5.37;100.00;100339.56;4399537;81;28459;-80
2021/11/10 11:22:56;;;;;;;28.77;15.60;;;;;;;5.67;100.00;100327.88;4396351;81;28501;-77
2021/11/10 11:29:15;;;;;;;33.73;17.07;;;;;;;5.85;100.00;100324.55;4399748;81;28479;-81
2021/11/10 11:35:32;;;;;;;34.00;17.52;;;;;;;6.08;100.00;100305.70;4401834;80;35959;-78
2021/11/10 11:41:34;;;;;;;29.87;16.50;;;;;;;6.33;100.00;100298.94;4432801;80;28489;-78
2021/11/10 11:47:35;;;;;;;28.42;14.83;;;;;;;6.47;100.00;100288.89;4411651;80;28503;-74
2021/11/10 11:53:41;;;;;;;33.15;15.98;;;;;;;6.64;100.00;100293.66;4365445;81;28463;-79
2021/11/10 11:59:45;;;;;;;35.20;16.95;;;;;;;6.81;100.00;100266.33;4392571;78;28454;-78
2021/11/10 12:05:52;;;;;;;37.60;17.10;;;;;;;7.04;100.00;100257.49;4425787;79;28551;-73
2021/11/10 12:11:59;;;;;;;38.53;16.55;;;;;;;7.10;100.00;100259.47;4444434;80;28483;-75
2021/11/10 12:18:11;;;;;;;33.23;15.25;;;;;;;7.27;100.00;100251.83;4419945;80;28534;-76
2021/11/10 12:24:23;;;;;;;27.87;14.05;;;;;;;7.32;100.00;100236.05;4379152;80;28468;-76
2021/11/10 12:30:30;;;;;;;37.03;16.50;;;;;;;7.57;100.00;100222.47;4373703;81;28513;-76
2021/11/10 12:36:58;;;;;;;30.12;15.90;;;;;;;7.83;100.00;100214.50;4379792;78;28550;-78
2021/11/10 12:43:09;;;;;;;27.90;15.13;;;;;;;8.01;100.00;100205.59;4488452;78;28484;-73
2021/11/10 12:49:14;;;;;;;28.35;14.03;;;;;;;8.11;100.00;100199.94;4402866;80;28542;-71
2021/11/10 12:55:20;;;;;;;26.10;13.72;;;;;;;8.33;100.00;100208.04;4443254;78;28485;-72
2021/11/10 13:01:22;;;;;;;27.53;14.07;;;;;;;8.47;100.00;100192.45;4444918;80;28477;-74
2021/11/10 13:07:32;;;;;;;25.52;13.62;;;;;;;8.64;100.00;100182.36;4449357;80;28446;-74
2021/11/10 13:13:31;;;;;;;25.27;13.28;;;;;;;8.68;100.00;100177.95;4435397;80;28508;-73
2021/11/10 13:19:55;;;;;;;21.20;11.35;;;;;;;8.79;100.00;100172.08;4448825;80;28454;-73
2021/11/10 13:25:57;;;;;;;23.40;10.03;;;;;;;8.89;100.00;100163.20;4442302;80;28498;-74
2021/11/10 13:32:12;;;;;;;19.50;9.40;;;;;;;8.98;100.00;100162.58;4451259;80;28487;-76
2021/11/10 13:38:14;;;;;;;18.98;9.43;;;;;;;9.04;100.00;100154.27;4428925;79;28499;-72
2021/11/10 13:44:23;;;;;;;23.75;9.90;;;;;;;9.13;100.00;100149.58;4394201;80;28465;-74
2021/11/10 13:50:41;;;;;;;17.15;8.85;;;;;;;9.09;100.00;100138.41;4388262;78;28562;-75
2021/11/10 13:56:53;;;;;;;19.45;8.55;;;;;;;9.06;100.00;100135.63;4451415;78;28480;-73
2021/11/10 14:02:55;;;;;;;13.78;7.00;;;;;;;9.01;100.00;100138.04;4497472;78;28461;-71
2021/11/10 14:09:09;;;;;;;15.32;7.05;;;;;;;8.95;100.00;100125.39;4484487;78;28498;-73
2021/11/10 14:15:36;;;;;;;13.72;7.10;;;;;;;8.93;100.00;100126.09;4469957;78;28496;-72
2021/11/10 14:21:37;;;;;;;18.52;8.00;;;;;;;8.89;100.00;100118.14;4444883;78;28456;-72
2021/11/10 14:27:39;;;;;;;14.70;8.23;;;;;;;8.77;100.00;100109.77;4475180;77;28430;-71
2021/11/10 14:33:46;;;;;;;16.12;8.03;;;;;;;8.64;100.00;100111.31;4456431;78;28516;-72
2021/11/10 14:39:47;;;;;;;13.78;6.80;;;;;;;8.43;100.00;100097.88;4444333;78;28500;-73
2021/11/10 14:46:07;;;;;;;14.75;7.15;;;;;;;8.23;100.00;100093.14;4448123;78;28470;-76
2021/11/10 14:52:11;;;;;;;16.35;7.85;;;;;;;8.15;100.00;100090.08;4432703;78;28567;-69
2021/11/10 14:58:17;;;;;;;20.17;9.08;;;;;;;8.00;100.00;100086.59;4452529;78;28478;-69
2021/11/10 15:04:22;;;;;;;;;;;;;;;7.71;100.00;100083.78;4442281;80;28517;-73
2021/11/10 15:10:26;;;;;;;14.45;7.90;;;;;;;7.38;100.00;100076.96;4423732;79;21056;-70
2021/11/10 15:16:34;;;;;;;22.67;8.68;;;;;;;7.17;100.00;100077.70;4378739;79;28484;-72
2021/11/10 15:22:53;;;;;;;17.85;8.40;;;;;;;6.91;100.00;100070.92;4427438;78;28477;-72
2021/11/10 15:28:54;;;;;;;19.92;7.15;;;;;;;6.89;100.00;100071.62;4474375;77;28555;-74
2021/11/10 15:34:56;;;;;;;19.23;7.00;;;;;;;6.90;100.00;100065.25;4446770;79;28478;-77
2021/11/10 15:41:02;;;;;;;19.07;7.67;;;;;;;6.72;100.00;100066.08;4445233;78;28473;-76
2021/11/10 15:47:04;;;;;;;17.48;8.18;;;;;;;6.62;100.00;100064.52;4429307;80;28530;-78
2021/11/10 15:53:07;;;;;;;19.20;8.25;;;;;;;6.35;100.00;100059.19;4429390;78;28474;-79
2021/11/10 15:59:09;;;;;;;18.85;7.53;;;;;;;6.21;100.00;100070.16;4447318;78;28485;-76
2021/11/10 16:05:15;;;;;;;14.98;7.08;;;;;;;5.97;100.00;100062.58;4463688;78;28489;-75
2021/11/10 16:11:15;;;;;;;13.30;6.90;;;;;;;5.81;100.00;100074.17;4459513;79;28501;-75
2021/11/10 16:17:17;;;;;;;23.10;7.97;;;;;;;5.74;100.00;100074.04;4422236;80;28473;-75
2021/11/10 16:23:18;;;;;;;19.10;8.00;;;;;;;5.56;100.00;100075.63;4445345;78;28525;-75
2021/11/10 16:29:20;;;;;;;16.50;7.40;;;;;;;5.40;100.00;100080.52;4455949;78;28589;-76
2021/11/10 16:35:21;;;;;;;17.15;8.33;;;;;;;5.31;100.00;100078.38;4462286;79;28513;-75
2021/11/10 16:41:23;;;;;;;20.90;7.30;;;;;;;5.22;100.00;100076.73;4438585;78;28463;-73
2021/11/10 16:47:24;;;;;;;18.75;7.92;;;;;;;5.08;100.00;100083.59;4435255;78;28555;-73
2021/11/10 16:53:26;;;;;;;18.10;7.60;;;;;;;4.86;100.00;100093.95;4447052;78;28498;-74
2021/11/10 17:13:42;;;;;;;18.02;7.90;;;;;;;4.50;100.00;100087.60;4240652;79;28521;-80
2021/11/10 17:19:43;;;;;;;18.70;7.50;;;;;;;4.33;100.00;100087.60;4242101;82;28511;-78
2021/11/10 17:25:44;;;;;;;13.03;6.60;;;;;;;4.17;100.00;100092.40;4238765;84;28481;-80
2021/11/10 17:31:45;;;;;;;18.10;7.12;;;;;;;4.13;100.00;100092.38;4241462;82;28513;-82
2021/11/10 17:37:49;;;;;;;18.02;7.37;;;;;;;4.07;100.00;100093.86;4255658;82;28524;-78
2021/11/10 17:43:50;;;;;;;17.15;7.90;;;;;;;4.07;100.00;100083.21;4256388;82;28470;-79
2021/11/10 17:49:52;;;;;;;21.62;8.38;;;;;;;3.96;100.00;100095.49;4234975;82;28503;-80
2021/11/10 17:55:54;;;;;;;22.65;7.95;;;;;;;3.92;100.00;100089.66;4235288;83;28482;-78
2021/11/10 18:01:55;;;;;;;19.35;8.08;;;;;;;3.84;100.00;100082.97;4235590;84;28492;-84
2021/11/10 18:07:57;;;;;;;21.17;8.20;;;;;;;3.69;100.00;100094.72;4237143;84;28587;-79
2021/11/10 18:13:58;;;;;;;21.45;8.60;;;;;;;3.75;100.00;100087.44;4238052;82;28560;-84
2021/11/10 18:20:00;;;;;;;23.98;10.75;;;;;;;3.65;100.00;100099.55;4293192;78;28535;-88
2021/11/10 18:26:01;;;;;;;26.30;11.12;;;;;;;3.53;100.00;100095.48;4280010;82;28455;-84
2021/11/10 18:32:03;;;;;;;20.25;9.05;;;;;;;3.74;100.00;100087.11;4265790;83;28472;-87
2021/11/10 18:38:07;;;;;;;24.90;9.38;;;;;;;3.62;100.00;100087.39;4273086;83;28459;-91
2021/11/10 18:44:09;;;;;;;25.70;10.03;;;;;;;3.54;100.00;100085.17;4280534;83;28519;-85
2021/11/10 18:50:14;;;;;;;32.30;13.98;;;;;;;3.32;100.00;100090.05;4277924;82;28526;-87
2021/11/10 18:56:15;;;;;;;36.65;13.55;;;;;;;3.49;100.00;100079.85;4272765;83;28539;-85
2021/11/10 19:02:17;;;;;;;39.15;16.65;;;;;;;3.51;100.00;100091.67;4258515;82;28453;-82
2021/11/10 19:08:23;;;;;;;34.15;13.98;;;;;;;3.69;100.00;100095.56;4273493;83;28483;-83
2021/11/10 19:14:42;;;;;;;29.10;14.10;;;;;;;3.46;100.00;100097.46;4276394;82;28494;-87
2021/11/10 19:20:50;;;;;;;30.63;14.27;;;;;;;3.35;100.00;100109.19;4308652;81;28519;-86
2021/11/10 19:26:49;;;;;;;33.70;15.60;;;;;;;3.13;100.00;100125.66;4308822;81;28557;-87
2021/11/10 19:32:50;;;;;;;31.35;14.25;;;;;;;3.33;100.00;100114.31;4314264;81;28443;-81
2021/11/10 19:38:53;;;;;;;32.83;13.35;;;;;;;3.18;100.00;100116.23;4327804;81;28451;-86
2021/11/10 19:44:54;;;;;;;27.75;11.88;;;;;;;2.92;100.00;100118.39;4313501;81;28514;-77
2021/11/10 19:50:56;;;;;;;27.67;12.68;;;;;;;3.10;100.00;100116.68;4246019;83;28474;-87
2021/11/10 19:56:57;;;;;;;30.30;13.90;;;;;;;3.12;100.00;100113.37;4302062;81;28463;-88
2021/11/10 20:03:01;;;;;;;31.37;14.38;;;;;;;3.01;100.00;100105.98;4297988;81;28489;-87
2021/11/10 20:09:06;;;;;;;37.35;17.07;;;;;;;3.05;100.00;100109.17;4303035;81;28486;-87
2021/11/10 20:15:10;;;;;;;35.10;14.73;;;;;;;2.88;100.00;100106.89;4257375;82;28546;-84
2021/11/10 20:21:12;;;;;;;30.60;14.00;;;;;;;2.96;100.00;100108.27;4297327;81;28476;-80
2021/11/10 20:27:14;;;;;;;38.60;16.77;;;;;;;2.79;100.00;100113.47;4263679;83;28466;-83
2021/11/10 20:33:17;;;;;;;38.45;17.25;;;;;;;2.59;100.00;100119.93;4250549;83;28482;-83
2021/11/10 20:39:19;;;;;;;34.40;17.02;;;;;;;2.59;100.00;100115.95;4276342;82;28464;-84
2021/11/10 20:45:23;;;;;;;42.60;20.97;;;;;;;2.36;100.00;100116.41;4268507;82;28452;-87
2021/11/10 20:51:25;;;;;;;42.85;19.77;;;;;;;2.36;100.00;100103.13;4143738;84;28482;-85
2021/11/10 20:57:29;;;;;;;42.93;20.08;;;;;;;2.32;100.00;100102.59;4251669;83;28529;-90
2021/11/10 21:03:32;;;;;;;42.05;20.85;;;;;;;2.19;100.00;100106.13;4287194;82;28530;-80
2021/11/10 21:09:34;;;;;;;46.23;20.30;;;;;;;2.25;100.00;100084.27;4276255;83;28540;-79
2021/11/10 21:15:36;;;;;;;54.60;26.55;;;;;;;2.10;100.00;100094.56;4229154;83;28466;-79
2021/11/10 21:21:38;;;;;;;54.23;26.33;;;;;;;2.18;100.00;100084.52;4312547;81;28523;-88
2021/11/10 21:27:43;;;;;;;53.63;25.12;;;;;;;1.99;100.00;100082.84;4288455;82;28466;-86
2021/11/10 21:33:45;;;;;;;51.28;24.43;;;;;;;1.92;100.00;100078.63;4306239;81;28447;-86
2021/11/10 21:39:51;;;;;;;49.18;22.70;;;;;;;1.93;100.00;100080.30;4317637;82;28473;-85
2021/11/10 21:45:53;;;;;;;56.77;27.15;;;;;;;1.84;100.00;100078.53;4321751;81;28495;-86
2021/11/10 21:51:56;;;;;;;58.08;27.45;;;;;;;2.08;100.00;100067.36;4323253;82;28474;-86
2021/11/10 21:57:58;;;;;;;57.58;28.65;;;;;;;1.83;100.00;100076.39;4349810;82;28486;-84
2021/11/10 22:04:00;;;;;;;56.70;27.82;;;;;;;1.79;100.00;100065.72;4312441;80;28596;-84
2021/11/10 22:10:01;;;;;;;53.58;25.70;;;;;;;1.69;100.00;100063.61;4302266;83;28506;-84
2021/11/10 22:16:03;;;;;;;52.83;25.62;;;;;;;1.55;100.00;100061.81;4302501;82;28487;-85
2021/11/10 22:22:06;;;;;;;52.78;24.37;;;;;;;1.56;100.00;100058.17;4307572;82;28532;-84
2021/11/10 22:28:09;;;;;;;54.20;27.10;;;;;;;1.68;100.00;100065.45;4275144;83;28538;-84
2021/11/10 22:34:11;;;;;;;53.92;27.67;;;;;;;1.58;100.00;100074.76;4290460;83;28488;-84
2021/11/10 22:40:17;;;;;;;55.92;27.90;;;;;;;1.34;100.00;100078.77;4270598;83;28461;-86
2021/11/10 22:46:18;;;;;;;51.60;26.82;;;;;;;1.23;100.00;100077.12;4260026;83;28528;-86
2021/11/10 22:52:19;;;;;;;51.98;24.98;;;;;;;1.19;100.00;100083.70;4265517;83;28504;-86
2021/11/10 22:58:21;;;;;;;52.95;25.55;;;;;;;1.14;100.00;100082.46;4264447;83;28571;-84
2021/11/10 23:04:22;;;;;;;54.10;25.82;;;;;;;1.19;100.00;100092.13;4265114;83;28540;-83
2021/11/10 23:10:24;;;;;;;47.60;24.23;;;;;;;1.15;100.00;100078.36;4272534;83;28480;-83
2021/11/10 23:16:25;;;;;;;51.37;25.02;;;;;;;1.01;100.00;100086.27;4262327;83;28517;-83
2021/11/10 23:22:27;;;;;;;55.30;25.60;;;;;;;0.90;100.00;100080.63;4276966;83;28535;-83
2021/11/10 23:28:28;;;;;;;53.58;24.55;;;;;;;0.97;100.00;100094.98;4292753;82;28500;-84
2021/11/10 23:34:30;;;;;;;57.65;26.07;;;;;;;0.92;100.00;100096.38;4331961;82;28520;-84
2021/11/10 23:40:33;;;;;;;55.85;26.87;;;;;;;0.95;100.00;100102.23;4258759;82;28508;-85
2021/11/10 23:46:34;;;;;;;55.92;26.20;;;;;;;0.99;100.00;100102.80;4328687;81;28933;-84
2021/11/10 23:52:36;;;;;;;46.02;22.95;;;;;;;0.91;100.00;100098.69;4317558;82;28494;-85
2021/11/10 23:58:37;;;;;;;49.95;23.27;;;;;;;0.71;100.00;100098.70;4315929;82;28445;-85
